Ginys del Meteocat

Dades de l'estació automàtica Lladurs

?
?
Resum diari 21:30 TU
Dades diàries de l'estació meteorològica
Temperatura mitjana 5.6 °C
Temperatura màxima 11.5 °C 13:28 TU
Temperatura mínima 1.1 °C 7:07 TU
Humitat relativa mitjana 80%
Precipitació acumulada 0.0 mm
Ratxa màxima del vent (2 m) 16.6 km/h - 231º 13:00 TU
Irradiació solar global 9.1 MJ/m2

El tram horari està expressat en Temps Universal (TU). Cal sumar una hora en horari d'hivern i dues en horari d'estiu per passar a l'hora oficial.

Lladurs

Metadades estació meteorol´gica
Municipi Lladurs
Comarca Solsonès
Altitud 785 m
Data alta 05.05.1998
Estat actual Operativa
Dades de període
Període
TU
TM
°C
TX
°C
TN
°C
HRM
%
PPT
mm
VVM (2 m)
km/h
DVM (2 m)
graus
VVX (2 m)
km/h
RS
W/m2
00:00 - 00:30 3.7 4.0 3.4 95 0.0 5.4 27 7.9 0
00:30 - 01:00 3.9 4.4 3.7 92 0.0 5.0 27 9.4 0
01:00 - 01:30 3.5 4.1 3.4 93 0.0 4.3 25 8.6 0
01:30 - 02:00 3.8 4.7 3.5 92 0.0 5.8 21 9.4 0
02:00 - 02:30 4.7 5.0 4.5 85 0.0 6.8 19 10.1 0
02:30 - 03:00 4.9 5.1 4.8 82 0.0 5.4 17 9.0 0
03:00 - 03:30 4.6 4.8 4.4 83 0.0 5.4 21 8.3 0
03:30 - 04:00 4.5 4.8 4.2 82 0.0 6.5 21 13.3 0
04:00 - 04:30 4.6 4.8 4.4 79 0.0 5.4 15 10.1 0
04:30 - 05:00 4.3 4.7 3.7 80 0.0 5.8 23 9.4 0
05:00 - 05:30 3.4 3.6 3.1 85 0.0 6.1 26 9.4 0
05:30 - 06:00 2.9 3.2 2.6 87 0.0 4.7 37 9.0 0
06:00 - 06:30 2.3 2.6 1.7 88 0.0 1.4 60 4.7 0
06:30 - 07:00 1.4 1.6 1.2 93 0.0 1.1 359 2.9 0
07:00 - 07:30 1.4 1.9 1.1 92 0.0 1.4 359 6.5 6
07:30 - 08:00 1.8 2.1 1.4 91 0.0 2.5 83 6.8 36
08:00 - 08:30 2.7 3.2 2.1 86 0.0 3.2 72 7.6 89
08:30 - 09:00 3.7 4.6 3.1 82 0.0 4.3 74 7.6 145
09:00 - 09:30 5.3 6.0 4.6 78 0.0 3.2 73 6.5 217
09:30 - 10:00 6.3 7.2 5.8 75 0.0 2.5 88 5.4 285
10:00 - 10:30 8.0 8.8 7.3 70 0.0 1.8 142 4.7 343
10:30 - 11:00 8.9 9.4 8.1 66 0.0 1.8 162 4.3 392
11:00 - 11:30 9.2 9.7 8.7 71 0.0 3.2 147 6.8 428
11:30 - 12:00 9.7 10.3 9.3 74 0.0 4.0 136 8.3 455
12:00 - 12:30 10.3 11.3 10.0 65 0.0 4.3 98 10.8 500
12:30 - 13:00 10.9 11.3 10.6 52 0.0 6.8 239 15.1 454
13:00 - 13:30 11.1 11.5 10.9 51 0.0 6.5 241 16.6 471
13:30 - 14:00 10.5 11.1 9.9 60 0.0 6.8 226 14.0 360
14:00 - 14:30 9.4 9.8 9.2 62 0.0 6.1 231 11.9 193
14:30 - 15:00 9.6 10.1 9.2 63 0.0 5.0 224 12.6 288
15:00 - 15:30 10.0 10.1 9.8 65 0.0 4.7 206 8.6 215
15:30 - 16:00 10.0 10.2 9.5 66 0.0 2.5 182 9.0 146
16:00 - 16:30 8.2 9.4 7.2 73 0.0 1.8 98 5.0 48
16:30 - 17:00 6.7 7.3 5.9 81 0.0 1.1 214 3.6 10
17:00 - 17:30 5.7 6.0 5.4 85 0.0 1.8 357 3.2 1
17:30 - 18:00 4.9 5.3 4.5 87 0.0 2.2 47 4.7 0
18:00 - 18:30 4.2 4.8 4.0 88 0.0 1.4 67 5.0 0
18:30 - 19:00 4.1 4.3 3.8 87 0.0 2.5 19 7.2 0
19:00 - 19:30 4.1 4.2 3.7 87 0.0 3.2 29 6.8 0
19:30 - 20:00 3.7 3.9 3.6 88 0.0 2.5 28 6.1 0
20:00 - 20:30 3.7 3.8 3.5 88 0.0 5.0 25 9.4 0
20:30 - 21:00 3.7 3.7 3.6 88 0.0 4.7 16 8.6 0
21:00 - 21:30 3.7 3.9 3.4 87 0.0 4.3 22 9.4 0
21:30 - 22:00 3.5 3.9 3.3 87 0.0 4.7 33 7.2 0

Les dades en taronja només han passat un control de qualitat automàtic. Resta pendent la seva validació definitiva.